Time;durP1;ratioP1;P1;durP2;ratioP2;P2;SDS_P1;SDS_P2;PMS_P1;PMS_P2;Temp;Humidity;BMP_temperature;BMP_pressure;BME280_temperature;BME280_humidity;BME280_pressure;Samples;Min_cycle;Max_cycle;Signal;HPM_P1;HPM_P2
2020/12/02 00:01:45;;;;;;;47.20;27.83;;;6.10;99.90;;;;;;5069948;28;20048;-47
2020/12/02 00:04:50;;;;;;;37.90;23.50;;;6.20;99.90;;;;;;5072217;28;20040;-49
2020/12/02 00:08:07;;;;;;;39.05;23.58;;;6.30;99.90;;;;;;5060289;28;20044;-52
2020/12/02 00:11:13;;;;;;;36.38;22.27;;;6.30;99.90;;;;;;5058270;28;20411;-48
2020/12/02 00:14:27;;;;;;;42.70;24.95;;;6.40;99.90;;;;;;5072124;28;20059;-48
2020/12/02 00:17:31;;;;;;;44.90;27.88;;;6.40;99.90;;;;;;5066748;28;20035;-48
2020/12/02 00:20:36;;;;;;;38.42;24.15;;;6.50;99.90;;;;;;5085863;28;20039;-51
2020/12/02 00:23:40;;;;;;;45.97;25.75;;;6.40;99.90;;;;;;5089129;28;20039;-48
2020/12/02 00:26:44;;;;;;;34.42;22.50;;;6.50;99.90;;;;;;5090419;28;20063;-48
2020/12/02 00:29:49;;;;;;;31.42;19.15;;;6.50;99.90;;;;;;5088424;28;20034;-49
2020/12/02 00:33:04;;;;;;;30.17;18.30;;;6.60;99.90;;;;;;5071117;28;20414;-50
2020/12/02 00:36:10;;;;;;;97.70;50.17;;;6.60;99.90;;;;;;5071430;28;20044;-51
2020/12/02 00:39:15;;;;;;;312.02;133.75;;;6.60;99.90;;;;;;5071396;28;20786;-48
2020/12/02 00:42:21;;;;;;;89.47;44.90;;;6.70;99.90;;;;;;5070836;28;20055;-48
2020/12/02 00:45:27;;;;;;;32.22;19.13;;;6.70;99.90;;;;;;5070457;28;20056;-48
2020/12/02 00:48:34;;;;;;;67.45;34.33;;;6.70;99.90;;;;;;5071098;28;20522;-48
2020/12/02 00:51:38;;;;;;;29.33;17.80;;;6.70;99.90;;;;;;5070026;28;20051;-49
2020/12/02 00:54:47;;;;;;;27.77;17.30;;;6.70;99.90;;;;;;5070346;28;20048;-54
2020/12/02 00:57:54;;;;;;;26.08;17.10;;;6.80;99.90;;;;;;5059641;28;20119;-52
2020/12/02 01:01:04;;;;;;;27.50;18.40;;;6.80;99.90;;;;;;5057782;28;20044;-52
2020/12/02 01:04:17;;;;;;;31.92;20.42;;;6.80;99.90;;;;;;5070512;28;20043;-48
2020/12/02 01:07:22;;;;;;;20.23;12.98;;;6.80;99.90;;;;;;5071176;28;20051;-54
2020/12/02 01:10:27;;;;;;;20.65;13.25;;;6.90;99.90;;;;;;5071062;28;20047;-48
2020/12/02 01:13:33;;;;;;;21.98;14.15;;;6.90;99.90;;;;;;5070501;28;20514;-51
2020/12/02 01:16:41;;;;;;;22.85;16.67;;;6.90;99.90;;;;;;5071098;28;20048;-48
2020/12/02 01:19:45;;;;;;;18.13;11.55;;;6.90;99.90;;;;;;5058449;28;20043;-53
2020/12/02 01:22:51;;;;;;;19.30;12.18;;;6.90;99.90;;;;;;5070409;28;20048;-50
2020/12/02 01:25:55;;;;;;;22.40;13.57;;;6.90;99.90;;;;;;5070783;28;20051;-51
2020/12/02 01:29:04;;;;;;;67.55;36.85;;;6.90;99.90;;;;;;5070970;28;20522;-48
2020/12/02 01:32:12;;;;;;;32.78;19.35;;;6.90;99.90;;;;;;5070575;28;20399;-49
2020/12/02 01:35:24;;;;;;;34.80;24.95;;;6.90;99.90;;;;;;5070453;28;20043;-49
2020/12/02 01:38:32;;;;;;;21.20;15.77;;;6.90;99.90;;;;;;5070809;28;20051;-50
2020/12/02 01:41:36;;;;;;;16.67;11.02;;;6.90;99.90;;;;;;5069927;28;20056;-52
2020/12/02 01:44:40;;;;;;;16.42;9.77;;;6.90;99.90;;;;;;5070206;28;20509;-56
2020/12/02 01:47:51;;;;;;;17.10;10.02;;;6.90;99.90;;;;;;5069526;28;20094;-50
2020/12/02 01:51:33;;;;;;;18.10;11.05;;;6.90;99.90;;;;;;5057912;28;20040;-50
2020/12/02 01:54:47;;;;;;;12.85;9.32;;;6.80;99.90;;;;;;5069765;28;20422;-50
2020/12/02 01:57:58;;;;;;;13.93;9.48;;;6.70;99.90;;;;;;5070007;28;20039;-48
2020/12/02 02:01:13;;;;;;;16.15;9.35;;;6.70;99.90;;;;;;5056892;28;20518;-50
2020/12/02 02:04:22;;;;;;;14.30;9.25;;;6.60;99.90;;;;;;5055287;28;20044;-50
2020/12/02 02:07:28;;;;;;;17.85;10.50;;;6.50;99.90;;;;;;5069377;28;20044;-54
2020/12/02 02:10:36;;;;;;;17.17;10.48;;;6.50;99.90;;;;;;5069227;28;20044;-48
2020/12/02 02:13:57;;;;;;;14.82;9.95;;;6.50;99.90;;;;;;5069397;28;20403;-49
2020/12/02 02:17:01;;;;;;;16.75;9.50;;;6.50;99.90;;;;;;5069715;28;20043;-48
2020/12/02 02:20:08;;;;;;;12.80;8.77;;;6.50;99.90;;;;;;5069464;28;20043;-48
2020/12/02 02:23:18;;;;;;;15.07;9.63;;;6.40;99.90;;;;;;5056542;28;20043;-52
2020/12/02 02:26:40;;;;;;;15.55;9.68;;;6.50;99.90;;;;;;5069298;28;20047;-48
2020/12/02 02:29:46;;;;;;;14.00;8.82;;;6.50;99.90;;;;;;5068730;28;20035;-50
2020/12/02 02:32:51;;;;;;;13.80;8.75;;;6.50;99.90;;;;;;5069243;28;20052;-51
2020/12/02 02:35:55;;;;;;;13.73;9.48;;;6.60;99.90;;;;;;5069124;28;20509;-48
2020/12/02 02:38:59;;;;;;;14.35;8.93;;;6.60;99.90;;;;;;5066781;28;20051;-50
2020/12/02 02:42:25;;;;;;;14.52;9.10;;;6.60;99.90;;;;;;5068827;28;20059;-48
2020/12/02 02:45:31;;;;;;;11.30;7.90;;;6.70;99.90;;;;;;5069252;28;20056;-48
2020/12/02 02:48:35;;;;;;;14.55;9.50;;;6.80;99.90;;;;;;5069774;28;20047;-52
2020/12/02 02:51:41;;;;;;;17.95;10.90;;;6.80;99.90;;;;;;5069443;28;20048;-51
2020/12/02 02:54:45;;;;;;;14.60;9.43;;;6.80;99.90;;;;;;5069144;28;20059;-49
2020/12/02 02:57:51;;;;;;;13.38;9.80;;;6.80;99.90;;;;;;5058596;28;20032;-51
2020/12/02 03:00:58;;;;;;;16.55;10.32;;;6.90;99.90;;;;;;5055756;28;20043;-48
2020/12/02 03:04:03;;;;;;;17.95;9.75;;;6.90;99.90;;;;;;5070753;28;20048;-52
2020/12/02 03:07:14;;;;;;;11.82;8.30;;;6.90;99.90;;;;;;5064461;28;20430;-48
2020/12/02 03:10:23;;;;;;;18.33;9.75;;;6.90;99.90;;;;;;5088634;28;20043;-50
2020/12/02 03:13:46;;;;;;;16.77;9.02;;;7.00;99.90;;;;;;5089226;28;20051;-53
2020/12/02 03:16:55;;;;;;;14.00;9.05;;;7.00;99.90;;;;;;5088216;28;20035;-48
2020/12/02 03:20:06;;;;;;;14.45;9.63;;;7.00;99.90;;;;;;5064547;28;20035;-48
2020/12/02 03:23:13;;;;;;;13.15;9.40;;;7.00;99.90;;;;;;5089075;28;20051;-49
2020/12/02 03:26:18;;;;;;;15.70;9.77;;;7.00;99.90;;;;;;5088337;28;20051;-49
2020/12/02 03:29:23;;;;;;;19.70;10.38;;;7.00;99.90;;;;;;5088575;28;20047;-49
2020/12/02 03:32:27;;;;;;;18.90;11.70;;;7.00;99.90;;;;;;5088788;28;20051;-49
2020/12/02 03:35:31;;;;;;;16.90;10.43;;;7.00;99.90;;;;;;5089732;28;20039;-50
2020/12/02 03:38:38;;;;;;;12.95;9.48;;;6.90;99.90;;;;;;5092001;28;20595;-49
2020/12/02 03:41:44;;;;;;;14.73;9.65;;;6.90;99.90;;;;;;5091618;28;20043;-49
2020/12/02 03:44:48;;;;;;;17.25;9.60;;;6.90;99.90;;;;;;5092001;28;20039;-50
2020/12/02 03:47:52;;;;;;;15.25;8.80;;;6.90;99.90;;;;;;5091462;28;20529;-48
2020/12/02 03:50:56;;;;;;;13.68;8.45;;;6.90;99.90;;;;;;5082628;28;20407;-50
2020/12/02 03:54:01;;;;;;;13.02;7.70;;;6.90;99.90;;;;;;5092533;28;20394;-48
2020/12/02 03:57:05;;;;;;;11.98;7.60;;;6.90;99.90;;;;;;5092311;28;20047;-47
2020/12/02 04:00:11;;;;;;;11.52;7.85;;;6.90;99.90;;;;;;5092357;28;20043;-49
2020/12/02 04:03:15;;;;;;;19.75;10.50;;;6.90;99.90;;;;;;5092032;28;20043;-48
2020/12/02 04:06:21;;;;;;;18.55;12.35;;;6.60;99.90;;;;;;5091398;28;20047;-50
2020/12/02 04:09:25;;;;;;;19.35;12.10;;;6.40;99.90;;;;;;5091758;28;20035;-48
2020/12/02 04:12:29;;;;;;;20.60;11.93;;;6.40;99.90;;;;;;5091586;28;20039;-48
2020/12/02 04:15:33;;;;;;;15.45;10.57;;;6.50;99.90;;;;;;5091564;28;20028;-48
2020/12/02 04:18:37;;;;;;;21.45;12.90;;;6.40;99.90;;;;;;5091959;28;20047;-50
2020/12/02 04:21:41;;;;;;;18.73;10.88;;;6.20;99.90;;;;;;5091635;28;20509;-48
2020/12/02 04:24:46;;;;;;;15.50;10.65;;;6.20;99.90;;;;;;5091798;28;20043;-50
2020/12/02 04:27:50;;;;;;;13.82;9.07;;;6.30;99.90;;;;;;5091753;28;20047;-53
2020/12/02 04:30:58;;;;;;;16.15;9.82;;;6.30;99.90;;;;;;5078290;28;20052;-50
2020/12/02 04:34:02;;;;;;;15.15;10.68;;;6.40;99.90;;;;;;5071301;28;20051;-48
2020/12/02 04:37:07;;;;;;;15.98;11.10;;;6.40;99.90;;;;;;5070982;28;20051;-50
2020/12/02 04:40:24;;;;;;;15.27;10.80;;;6.40;99.90;;;;;;5063597;28;20043;-49
2020/12/02 04:43:38;;;;;;;12.32;8.45;;;6.40;99.90;;;;;;5071400;28;20047;-48
2020/12/02 04:46:42;;;;;;;16.25;10.55;;;6.50;99.90;;;;;;5070175;28;20051;-48
2020/12/02 04:49:47;;;;;;;17.73;10.93;;;6.50;99.90;;;;;;5058440;28;20047;-48
2020/12/02 04:53:19;;;;;;;14.85;10.43;;;6.50;99.90;;;;;;5070847;28;20059;-48
2020/12/02 04:56:26;;;;;;;103.22;16.38;;;6.20;99.90;;;;;;5056604;28;20044;-49
2020/12/02 04:59:40;;;;;;;715.00;64.57;;;6.00;99.90;;;;;;5070657;28;20490;-49
2020/12/02 05:02:44;;;;;;;17.05;11.27;;;5.50;99.90;;;;;;5062562;28;20585;-54
2020/12/02 05:05:59;;;;;;;18.48;11.10;;;5.50;99.90;;;;;;5059824;28;20051;-50
2020/12/02 05:09:23;;;;;;;15.82;10.65;;;5.60;99.90;;;;;;5065705;28;20044;-48
2020/12/02 05:13:07;;;;;;;17.23;10.38;;;5.70;99.90;;;;;;5062722;28;20119;-48
2020/12/02 05:16:12;;;;;;;8.00;4.82;;;5.70;99.90;;;;;;5064206;28;20518;-48
2020/12/02 05:19:20;;;;;;;26.70;6.13;;;5.70;99.90;;;;;;5062939;28;20052;-52
2020/12/02 05:22:24;;;;;;;5.88;3.60;;;5.80;99.90;;;;;;5055000;28;20040;-48
2020/12/02 05:25:30;;;;;;;5.53;4.28;;;5.80;99.90;;;;;;5063493;28;20041;-52
2020/12/02 05:28:42;;;;;;;5.95;4.10;;;5.80;99.90;;;;;;5058246;28;20642;-48
2020/12/02 05:31:46;;;;;;;2.60;1.90;;;5.80;99.90;;;;;;5064507;28;20040;-48
2020/12/02 05:34:51;;;;;;;2.53;1.63;;;5.80;99.90;;;;;;5062964;28;20041;-54
2020/12/02 05:37:56;;;;;;;1.88;1.42;;;5.70;99.90;;;;;;5061721;28;20041;-48
2020/12/02 05:41:02;;;;;;;1.92;1.40;;;5.80;99.90;;;;;;5058418;28;20394;-48
2020/12/02 05:44:14;;;;;;;2.53;2.10;;;5.80;99.90;;;;;;5066984;28;20040;-48
2020/12/02 05:47:20;;;;;;;6.47;3.63;;;5.70;99.90;;;;;;5058798;28;20036;-48
2020/12/02 05:50:25;;;;;;;3.45;3.00;;;5.70;99.90;;;;;;5064470;28;20728;-47
2020/12/02 05:53:39;;;;;;;3.05;2.75;;;5.70;99.90;;;;;;5059013;28;20051;-53
2020/12/02 05:56:44;;;;;;;2.95;1.00;;;5.60;99.90;;;;;;5064519;28;20475;-48
2020/12/02 05:59:56;;;;;;;1.20;0.90;;;5.50;99.90;;;;;;5066019;28;20033;-50
2020/12/02 06:03:02;;;;;;;3.08;1.67;;;5.50;99.90;;;;;;5064801;28;20040;-48
2020/12/02 06:06:12;;;;;;;4.25;1.80;;;5.50;99.90;;;;;;5070018;28;20040;-50
2020/12/02 06:09:17;;;;;;;4.30;1.80;;;5.60;99.90;;;;;;5065815;28;20041;-49
2020/12/02 06:12:23;;;;;;;6.70;1.95;;;5.70;99.90;;;;;;5057366;28;20041;-49
2020/12/02 06:15:35;;;;;;;1.85;1.27;;;5.70;99.90;;;;;;5058666;28;20041;-49
2020/12/02 06:18:40;;;;;;;2.80;1.30;;;5.80;99.90;;;;;;5055637;28;20029;-49
2020/12/02 06:21:59;;;;;;;1.88;1.00;;;5.80;99.90;;;;;;5053092;28;20045;-53
2020/12/02 06:25:03;;;;;;;7.20;1.10;;;5.80;99.90;;;;;;5061501;28;20509;-52
2020/12/02 06:28:10;;;;;;;1.70;1.00;;;5.80;99.90;;;;;;5067069;28;20032;-48
2020/12/02 06:31:17;;;;;;;1.90;1.20;;;5.70;99.90;;;;;;5062347;28;20044;-49
2020/12/02 06:34:24;;;;;;;1.98;1.02;;;5.70;99.90;;;;;;5061606;28;20036;-49
2020/12/02 06:37:28;;;;;;;1.50;1.00;;;5.70;99.90;;;;;;5057222;28;20041;-48
2020/12/02 06:40:33;;;;;;;2.00;1.33;;;5.70;99.90;;;;;;5055172;28;20040;-48
2020/12/02 06:44:01;;;;;;;4.00;1.20;;;5.70;99.90;;;;;;5051912;28;20049;-48
2020/12/02 06:47:19;;;;;;;1.88;1.30;;;5.70;99.90;;;;;;5060642;28;20040;-53
2020/12/02 06:50:30;;;;;;;3.05;1.40;;;5.70;99.90;;;;;;5051189;28;20384;-51
2020/12/02 06:53:35;;;;;;;2.30;1.10;;;5.80;99.90;;;;;;5054062;28;20036;-51
2020/12/02 06:56:40;;;;;;;2.15;1.23;;;5.70;99.90;;;;;;5067400;28;20502;-48
2020/12/02 06:59:54;;;;;;;1.75;1.08;;;5.70;99.90;;;;;;5053865;28;20044;-50
2020/12/02 07:03:02;;;;;;;6.13;2.83;;;5.60;99.90;;;;;;5059995;28;20041;-48
2020/12/02 07:06:09;;;;;;;2.95;1.25;;;5.60;99.90;;;;;;5064174;28;20040;-49
2020/12/02 07:09:16;;;;;;;1.90;1.45;;;5.70;99.90;;;;;;5064428;28;20045;-50
2020/12/02 07:12:23;;;;;;;2.42;1.45;;;5.60;99.90;;;;;;5052871;28;20041;-49
2020/12/02 07:15:28;;;;;;;2.75;1.48;;;5.60;99.90;;;;;;5059825;28;20899;-48
2020/12/02 07:18:32;;;;;;;1.92;1.40;;;5.60;99.90;;;;;;5055574;28;20032;-48
2020/12/02 07:21:58;;;;;;;5.90;2.00;;;5.60;99.90;;;;;;5069864;28;20044;-52
2020/12/02 07:25:08;;;;;;;2.28;1.58;;;5.60;99.90;;;;;;5067562;28;20040;-52
2020/12/02 07:28:19;;;;;;;3.03;2.15;;;5.60;99.90;;;;;;5071478;28;20586;-48
2020/12/02 07:31:25;;;;;;;2.90;2.20;;;5.70;99.90;;;;;;5052032;28;20053;-50
2020/12/02 07:34:30;;;;;;;4.35;2.97;;;5.70;99.90;;;;;;5052714;28;20400;-53
2020/12/02 07:37:34;;;;;;;2.78;2.28;;;5.60;99.90;;;;;;5052126;28;20037;-51
2020/12/02 07:40:39;;;;;;;4.95;2.60;;;5.70;99.90;;;;;;5062961;28;20045;-52
2020/12/02 07:43:47;;;;;;;5.45;1.83;;;5.80;99.90;;;;;;5064400;28;20036;-48
2020/12/02 07:46:57;;;;;;;2.58;1.90;;;5.70;99.90;;;;;;5064898;28;20380;-52
2020/12/02 07:50:06;;;;;;;2.63;2.05;;;5.70;99.90;;;;;;5066147;28;20037;-49
2020/12/02 07:53:13;;;;;;;2.70;2.00;;;5.60;99.90;;;;;;5056124;28;20037;-52
2020/12/02 07:56:30;;;;;;;2.67;2.00;;;5.70;99.90;;;;;;5058038;28;20032;-48
2020/12/02 07:59:34;;;;;;;3.17;2.38;;;5.70;99.90;;;;;;5063201;28;20380;-50
2020/12/02 08:02:42;;;;;;;3.72;2.45;;;5.80;99.90;;;;;;5069430;28;20514;-49
2020/12/02 08:05:59;;;;;;;3.88;2.50;;;5.90;99.90;;;;;;5072200;28;20044;-50
2020/12/02 08:09:03;;;;;;;5.50;2.67;;;6.00;99.90;;;;;;5066729;28;20045;-51
2020/12/02 08:12:30;;;;;;;6.32;4.10;;;6.10;99.90;;;;;;5064531;28;20032;-49
2020/12/02 08:16:04;;;;;;;15.20;7.78;;;6.20;99.90;;;;;;5081389;28;20044;-49
2020/12/02 08:19:11;;;;;;;9.60;5.15;;;6.30;99.90;;;;;;5088771;28;20509;-49
2020/12/02 08:22:45;;;;;;;9.25;4.15;;;6.40;99.90;;;;;;5087544;28;20036;-51
2020/12/02 08:25:57;;;;;;;12.48;3.97;;;6.40;99.90;;;;;;5088916;28;20032;-48
2020/12/02 08:29:07;;;;;;;249.07;13.45;;;6.10;99.90;;;;;;5088518;28;20051;-48
2020/12/02 08:32:43;;;;;;;27.40;3.28;;;5.80;99.90;;;;;;5077681;28;20526;-48
2020/12/02 08:35:49;;;;;;;43.05;5.13;;;5.50;99.90;;;;;;5070165;28;20043;-49
2020/12/02 08:38:53;;;;;;;8.43;3.60;;;5.50;99.90;;;;;;5074076;28;20047;-52
2020/12/02 08:41:58;;;;;;;3.85;2.78;;;5.70;99.90;;;;;;5070989;28;20041;-49
2020/12/02 08:45:16;;;;;;;5.63;2.63;;;5.80;99.90;;;;;;5070582;28;20380;-48
2020/12/02 08:48:20;;;;;;;3.85;2.80;;;5.90;99.90;;;;;;5071621;28;20037;-48
2020/12/02 08:51:25;;;;;;;3.92;2.63;;;6.10;99.90;;;;;;5055922;28;20037;-49
2020/12/02 08:54:29;;;;;;;5.25;3.35;;;6.30;99.90;;;;;;5062450;28;20048;-48
2020/12/02 08:57:33;;;;;;;5.97;3.88;;;6.40;99.90;;;;;;5053734;28;20060;-48
2020/12/02 09:00:37;;;;;;;5.25;3.35;;;6.50;99.90;;;;;;5054815;28;20049;-48
2020/12/02 09:03:42;;;;;;;4.65;3.35;;;6.70;99.90;;;;;;5054470;28;20487;-49
2020/12/02 09:06:48;;;;;;;4.00;3.03;;;6.60;99.90;;;;;;5053833;28;20492;-49
2020/12/02 09:09:54;;;;;;;4.78;3.50;;;6.70;99.90;;;;;;5059838;28;20041;-49
2020/12/02 09:12:58;;;;;;;4.28;3.58;;;6.80;99.90;;;;;;5070553;28;20055;-51
2020/12/02 09:16:03;;;;;;;6.22;4.30;;;6.70;99.90;;;;;;5059477;28;20029;-48
2020/12/02 09:19:11;;;;;;;6.15;4.60;;;6.40;99.90;;;;;;5071027;28;20041;-49
2020/12/02 09:22:16;;;;;;;7.20;5.03;;;6.40;99.90;;;;;;5062700;28;20045;-48
2020/12/02 09:25:20;;;;;;;8.07;5.30;;;6.50;99.90;;;;;;5060117;28;20036;-48
2020/12/02 09:28:24;;;;;;;7.05;4.95;;;6.70;99.90;;;;;;5070594;28;20036;-48
2020/12/02 09:31:31;;;;;;;6.28;4.25;;;6.60;99.90;;;;;;5066692;28;20033;-49
2020/12/02 09:34:35;;;;;;;4.38;3.40;;;6.70;99.90;;;;;;5069943;28;20048;-49
2020/12/02 09:37:39;;;;;;;4.13;3.28;;;7.00;99.90;;;;;;5070981;28;20036;-48
2020/12/02 09:40:44;;;;;;;5.32;4.05;;;7.30;99.90;;;;;;5061477;28;20044;-51
2020/12/02 09:44:14;;;;;;;7.22;6.35;;;7.40;99.90;;;;;;5070583;28;20044;-50
2020/12/02 09:47:19;;;;;;;9.32;6.15;;;7.50;99.90;;;;;;5063130;28;20036;-50
2020/12/02 09:50:23;;;;;;;9.75;6.28;;;7.60;99.90;;;;;;5068546;28;20037;-50
2020/12/02 09:53:29;;;;;;;10.77;6.95;;;7.70;99.90;;;;;;5069877;28;20506;-48
2020/12/02 09:56:41;;;;;;;11.45;7.07;;;7.80;99.90;;;;;;5061604;28;20043;-49
2020/12/02 09:59:46;;;;;;;7.63;6.30;;;8.10;99.90;;;;;;5061920;28;20032;-49
2020/12/02 10:02:59;;;;;;;8.13;5.65;;;8.20;99.90;;;;;;5061118;28;20032;-51
2020/12/02 10:06:22;;;;;;;8.27;5.18;;;8.10;99.90;;;;;;5058406;28;20531;-48
2020/12/02 10:09:26;;;;;;;6.65;4.93;;;7.60;99.90;;;;;;5068932;28;20032;-49
2020/12/02 10:12:47;;;;;;;7.25;4.70;;;7.50;99.90;;;;;;5063366;28;20025;-50
2020/12/02 10:16:20;;;;;;;3.83;3.10;;;7.00;99.90;;;;;;5050446;28;20037;-48
2020/12/02 10:19:34;;;;;;;;;;;7.00;99.90;;;;;;5069732;28;20052;-49
2020/12/02 10:22:50;;;;;;;2.60;2.15;;;7.30;99.90;;;;;;5062334;28;20426;-48
2020/12/02 10:26:13;;;;;;;3.78;2.58;;;7.70;99.90;;;;;;5062944;28;20037;-48
2020/12/02 10:29:38;;;;;;;5.50;2.80;;;8.00;99.90;;;;;;5055825;28;20504;-51
2020/12/02 10:33:11;;;;;;;3.72;2.83;;;8.20;99.90;;;;;;5054925;28;20029;-53
2020/12/02 10:36:18;;;;;;;5.55;3.35;;;7.80;99.90;;;;;;5065729;28;20057;-48
2020/12/02 10:39:31;;;;;;;6.18;3.60;;;7.70;99.90;;;;;;5061254;28;20036;-52
2020/12/02 10:43:06;;;;;;;5.78;4.22;;;7.70;99.90;;;;;;5051202;28;20037;-51
2020/12/02 10:46:22;;;;;;;7.03;4.78;;;7.60;99.90;;;;;;5056634;28;20510;-48
2020/12/02 10:49:30;;;;;;;8.18;5.28;;;7.60;99.90;;;;;;5051224;28;20444;-50
2020/12/02 10:52:35;;;;;;;8.20;6.28;;;7.70;99.90;;;;;;5049929;28;20051;-48
2020/12/02 10:55:40;;;;;;;8.00;4.88;;;7.60;99.90;;;;;;5065490;28;20044;-48
2020/12/02 10:58:45;;;;;;;12.25;4.85;;;7.60;99.90;;;;;;5069083;28;20036;-48
2020/12/02 11:01:51;;;;;;;6.60;4.60;;;7.70;99.90;;;;;;5064897;28;20051;-48
2020/12/02 11:04:58;;;;;;;8.98;4.72;;;8.00;99.90;;;;;;5062830;28;20059;-49
2020/12/02 11:08:20;;;;;;;8.38;5.57;;;8.00;99.90;;;;;;5049853;28;20483;-48
2020/12/02 11:11:41;;;;;;;;;;;8.00;99.90;;;;;;5060882;28;20049;-48
2020/12/02 11:15:23;;;;;;;8.45;4.72;;;8.20;99.90;;;;;;5063490;28;19916;-49
2020/12/02 11:18:44;;;;;;;7.90;4.88;;;8.50;99.90;;;;;;5057369;28;20040;-52
2020/12/02 11:22:19;;;;;;;5.65;4.30;;;8.50;99.90;;;;;;5057908;28;20037;-48
2020/12/02 11:25:38;;;;;;;7.80;4.55;;;8.60;99.90;;;;;;5053898;28;20029;-48
2020/12/02 11:28:45;;;;;;;7.47;4.47;;;8.40;99.90;;;;;;5066876;28;20033;-51
2020/12/02 11:32:08;;;;;;;6.13;4.43;;;8.40;99.90;;;;;;5059201;28;20029;-52
2020/12/02 11:35:15;;;;;;;;;;;8.50;99.90;;;;;;5060046;28;20040;-50
2020/12/02 11:38:27;;;;;;;7.65;5.10;;;8.60;99.90;;;;;;5068605;28;19931;-49
2020/12/02 11:41:57;;;;;;;6.28;4.93;;;8.60;99.90;;;;;;5059927;28;20045;-49
2020/12/02 11:45:10;;;;;;;13.25;4.90;;;8.60;99.90;;;;;;5062100;28;20032;-48
2020/12/02 11:48:40;;;;;;;8.27;4.70;;;8.70;99.90;;;;;;5060349;28;20039;-47
2020/12/02 11:51:57;;;;;;;8.60;4.63;;;8.50;99.90;;;;;;5055440;28;20049;-47
2020/12/02 11:55:06;;;;;;;7.88;4.43;;;8.40;99.90;;;;;;5068663;28;20055;-49
2020/12/02 11:58:12;;;;;;;8.68;4.60;;;8.40;99.90;;;;;;5073035;28;20040;-54
2020/12/02 12:01:52;;;;;;;4.72;3.33;;;8.40;99.90;;;;;;5071861;28;20052;-55
2020/12/02 12:05:03;;;;;;;10.23;4.10;;;8.30;99.90;;;;;;5060825;28;20044;-54
2020/12/02 12:08:19;;;;;;;8.35;3.40;;;8.40;99.90;;;;;;5058754;28;20139;-50
2020/12/02 12:11:31;;;;;;;5.55;3.50;;;8.50;99.90;;;;;;5066217;28;20036;-51
2020/12/02 12:14:51;;;;;;;5.65;3.60;;;8.50;99.90;;;;;;5071874;28;20040;-49
2020/12/02 12:17:58;;;;;;;8.68;3.95;;;8.50;99.90;;;;;;5063377;28;20400;-50
2020/12/02 12:21:28;;;;;;;8.35;3.95;;;8.40;99.90;;;;;;5057634;28;20045;-53
2020/12/02 12:24:32;;;;;;;6.63;4.30;;;8.50;99.90;;;;;;5057435;28;20522;-51
2020/12/02 12:27:39;;;;;;;9.23;4.65;;;8.60;99.90;;;;;;5070541;28;20037;-52
2020/12/02 12:30:44;;;;;;;7.38;4.40;;;8.60;99.90;;;;;;5071049;28;20032;-51
2020/12/02 12:33:59;;;;;;;6.60;4.07;;;8.70;99.90;;;;;;5069164;28;20036;-52
2020/12/02 12:37:09;;;;;;;10.27;4.72;;;8.70;99.90;;;;;;5067576;28;20032;-50
2020/12/02 12:40:19;;;;;;;8.35;4.22;;;8.60;99.90;;;;;;5071150;28;20051;-52
2020/12/02 12:43:30;;;;;;;7.05;4.32;;;8.60;99.90;;;;;;5064720;28;20048;-53
2020/12/02 12:46:46;;;;;;;8.68;4.68;;;8.30;99.90;;;;;;5065863;28;20036;-52
2020/12/02 12:49:55;;;;;;;8.65;5.07;;;8.00;99.90;;;;;;5056122;28;20049;-51
2020/12/02 12:53:05;;;;;;;11.30;5.47;;;7.90;99.90;;;;;;5057189;28;20044;-51
2020/12/02 12:56:12;;;;;;;12.02;4.68;;;7.80;99.90;;;;;;5052575;28;20040;-48
2020/12/02 12:59:16;;;;;;;13.50;4.85;;;7.80;99.90;;;;;;5055171;28;20051;-48
2020/12/02 13:02:28;;;;;;;7.57;4.45;;;8.00;99.90;;;;;;5054640;28;20060;-47
2020/12/02 13:05:32;;;;;;;12.80;4.40;;;8.20;99.90;;;;;;5069949;28;20482;-49
2020/12/02 13:08:54;;;;;;;9.63;3.95;;;8.40;99.90;;;;;;5062866;28;20048;-49
2020/12/02 13:12:17;;;;;;;10.63;4.10;;;8.50;99.90;;;;;;5060809;28;20391;-48
2020/12/02 13:15:49;;;;;;;3.38;1.77;;;8.60;99.90;;;;;;5055032;28;20047;-47
2020/12/02 13:19:04;;;;;;;9.88;2.40;;;8.60;99.90;;;;;;5052803;28;20376;-50
2020/12/02 13:22:22;;;;;;;4.78;1.98;;;8.50;99.90;;;;;;5066984;28;20399;-47
2020/12/02 13:25:35;;;;;;;4.43;1.45;;;8.40;99.90;;;;;;5066855;28;20044;-49
2020/12/02 13:28:52;;;;;;;4.22;1.70;;;8.40;99.90;;;;;;5062821;28;20383;-52
2020/12/02 13:32:12;;;;;;;4.25;1.45;;;8.40;99.90;;;;;;5067197;28;20037;-47
2020/12/02 13:35:17;;;;;;;8.45;1.73;;;8.30;99.90;;;;;;5067570;28;20372;-48
2020/12/02 13:38:21;;;;;;;8.70;2.47;;;8.30;99.90;;;;;;5066218;28;20024;-52
2020/12/02 13:41:34;;;;;;;7.05;1.88;;;8.20;99.90;;;;;;5060250;28;20627;-51
2020/12/02 13:44:41;;;;;;;6.75;2.00;;;8.10;99.90;;;;;;5065227;28;20040;-52
2020/12/02 13:47:49;;;;;;;9.65;2.38;;;7.90;99.90;;;;;;5059388;28;20037;-57
2020/12/02 13:51:10;;;;;;;8.82;3.10;;;7.80;99.90;;;;;;5057782;28;20033;-47
2020/12/02 13:54:38;;;;;;;11.43;2.55;;;7.80;99.90;;;;;;5058673;28;20033;-47
2020/12/02 13:58:00;;;;;;;4.75;2.10;;;7.90;99.90;;;;;;5054559;28;20036;-53
2020/12/02 14:01:19;;;;;;;9.50;2.28;;;7.80;99.90;;;;;;5056639;28;20025;-47
2020/12/02 14:04:56;;;;;;;7.18;1.92;;;7.80;99.90;;;;;;5065165;28;20503;-51
2020/12/02 14:08:01;;;;;;;10.63;3.30;;;7.60;99.90;;;;;;5060359;28;20040;-47
2020/12/02 14:11:05;;;;;;;10.90;3.60;;;7.60;99.90;;;;;;5067805;28;20047;-51
2020/12/02 14:14:10;;;;;;;10.95;4.57;;;7.60;99.90;;;;;;5071229;28;20051;-49
2020/12/02 14:17:18;;;;;;;12.55;4.53;;;7.60;99.90;;;;;;5053146;28;20517;-47
2020/12/02 14:20:23;;;;;;;13.77;6.00;;;7.60;99.90;;;;;;5053762;28;20514;-47
2020/12/02 14:23:28;;;;;;;12.82;6.35;;;7.60;99.90;;;;;;5064698;28;20055;-53
2020/12/02 14:26:32;;;;;;;16.17;7.82;;;7.60;99.90;;;;;;5075280;28;20522;-53
2020/12/02 14:29:36;;;;;;;12.18;6.57;;;7.60;99.90;;;;;;5077703;28;20043;-51
2020/12/02 14:32:40;;;;;;;12.13;6.82;;;7.50;99.90;;;;;;5080423;28;20047;-49
2020/12/02 14:35:44;;;;;;;15.80;7.88;;;7.50;99.90;;;;;;5079219;28;20043;-53
2020/12/02 14:38:48;;;;;;;18.00;10.40;;;7.40;99.90;;;;;;5075353;28;20047;-47
2020/12/02 14:41:55;;;;;;;13.85;7.30;;;7.40;99.90;;;;;;5068827;28;20059;-47
2020/12/02 14:45:00;;;;;;;16.02;7.28;;;7.40;99.90;;;;;;5069148;28;20051;-47
2020/12/02 14:48:05;;;;;;;16.35;7.10;;;7.40;99.90;;;;;;5069530;28;20498;-47
2020/12/02 14:51:09;;;;;;;28.75;12.85;;;7.40;99.90;;;;;;5056209;28;20051;-50
2020/12/02 14:54:14;;;;;;;24.65;11.45;;;7.40;99.90;;;;;;5060060;28;20035;-51
2020/12/02 14:57:39;;;;;;;75.72;34.40;;;7.40;99.90;;;;;;5065150;28;20052;-47
2020/12/02 15:00:59;;;;;;;14.13;8.27;;;7.40;99.90;;;;;;5068154;28;20055;-48
2020/12/02 15:04:07;;;;;;;14.55;7.15;;;7.40;99.90;;;;;;5067394;28;20517;-48
2020/12/02 15:07:29;;;;;;;17.48;9.88;;;7.30;99.90;;;;;;5068173;28;20040;-47
2020/12/02 15:10:37;;;;;;;16.15;8.77;;;7.30;99.90;;;;;;5061500;28;20056;-51
2020/12/02 15:13:43;;;;;;;17.38;8.63;;;7.20;99.90;;;;;;5068590;28;20514;-48
2020/12/02 15:17:04;;;;;;;24.20;8.77;;;7.20;99.90;;;;;;5069133;28;20041;-47
2020/12/02 15:20:16;;;;;;;19.65;8.38;;;7.10;99.90;;;;;;5068857;28;20060;-54
2020/12/02 15:23:29;;;;;;;14.38;7.60;;;7.10;99.90;;;;;;5068736;28;20051;-47
2020/12/02 15:26:33;;;;;;;17.10;8.77;;;7.10;99.90;;;;;;5068193;28;20043;-51
2020/12/02 15:29:37;;;;;;;18.33;7.28;;;7.00;99.90;;;;;;5068829;28;20047;-48
2020/12/02 15:32:42;;;;;;;10.98;6.07;;;7.00;99.90;;;;;;5072244;28;20039;-51
2020/12/02 15:36:15;;;;;;;33.85;25.10;;;6.90;99.90;;;;;;5072638;28;20059;-51
2020/12/02 15:39:42;;;;;;;17.27;9.35;;;6.90;99.90;;;;;;5071366;28;20165;-52
2020/12/02 15:43:39;;;;;;;11.00;7.20;;;6.90;99.90;;;;;;5065338;28;20036;-48
2020/12/02 15:47:15;;;;;;;15.05;7.15;;;6.90;99.90;;;;;;5071495;28;20036;-49
2020/12/02 15:50:42;;;;;;;18.08;8.25;;;6.80;99.90;;;;;;5067712;28;20043;-47
2020/12/02 15:53:52;;;;;;;14.07;8.38;;;6.80;99.90;;;;;;5071875;28;20241;-47
2020/12/02 15:57:08;;;;;;;18.75;9.23;;;6.80;99.90;;;;;;5072951;28;20407;-50
2020/12/02 16:00:19;;;;;;;27.83;16.15;;;6.80;99.90;;;;;;5073013;28;20055;-47
2020/12/02 16:03:26;;;;;;;36.15;20.85;;;6.90;99.90;;;;;;5072694;28;20040;-48
2020/12/02 16:06:33;;;;;;;16.27;9.73;;;6.90;99.90;;;;;;5060613;28;20410;-47
2020/12/02 16:09:41;;;;;;;36.55;21.80;;;7.00;99.90;;;;;;5071831;28;20044;-50
2020/12/02 16:12:46;;;;;;;25.15;15.35;;;7.00;99.90;;;;;;5072169;28;20051;-47
2020/12/02 16:15:49;;;;;;;25.05;12.50;;;7.00;99.90;;;;;;5071801;28;20055;-47
2020/12/02 16:18:54;;;;;;;16.05;9.40;;;7.00;99.90;;;;;;5072108;28;20442;-48
2020/12/02 16:22:27;;;;;;;21.90;10.52;;;7.00;99.90;;;;;;5071878;28;20048;-47
2020/12/02 16:25:32;;;;;;;14.63;9.30;;;6.90;99.90;;;;;;5071591;28;20055;-48
2020/12/02 16:28:41;;;;;;;18.85;11.10;;;6.90;99.90;;;;;;5060097;28;20047;-52
2020/12/02 16:31:50;;;;;;;18.42;11.68;;;6.90;99.90;;;;;;5071568;28;20348;-46
2020/12/02 16:34:55;;;;;;;16.90;11.70;;;6.80;99.90;;;;;;5071342;28;20036;-49
2020/12/02 16:38:02;;;;;;;17.42;12.43;;;6.70;99.90;;;;;;5071763;28;20560;-47